createdAt,value
2018-03-21T00:00:03.810Z,29.1
2018-03-21T00:00:52.813Z,29.1
2018-03-21T00:01:43.263Z,29.1
2018-03-21T00:02:32.901Z,29.1
2018-03-21T00:03:23.399Z,29.1
2018-03-21T00:04:13.070Z,29.1
2018-03-21T00:05:02.905Z,29.1
2018-03-21T00:05:53.283Z,29.1
2018-03-21T00:06:44.015Z,29.1
2018-03-21T00:07:33.002Z,29.1
2018-03-21T00:08:23.059Z,29.1
2018-03-21T00:09:13.679Z,29.1
2018-03-21T00:10:03.571Z,29.1
2018-03-21T00:10:53.051Z,29.1
2018-03-21T00:11:43.439Z,29.1
2018-03-21T00:12:34.303Z,29.1
2018-03-21T00:13:23.582Z,29.1
2018-03-21T00:14:12.874Z,29.1
2018-03-21T00:15:04.782Z,29.1
2018-03-21T00:15:54.071Z,29
2018-03-21T00:16:43.252Z,29.1
2018-03-21T00:17:34.371Z,29
2018-03-21T00:18:24.741Z,29
2018-03-21T00:19:14.301Z,29
2018-03-21T00:20:03.982Z,29
2018-03-21T00:20:54.147Z,29
2018-03-21T00:21:44.841Z,29
2018-03-21T00:22:34.882Z,29
2018-03-21T00:23:25.194Z,29.1
2018-03-21T00:24:15.726Z,29
2018-03-21T00:25:05.366Z,29
2018-03-21T00:25:54.226Z,29
2018-03-21T00:26:44.703Z,29
2018-03-21T00:27:35.001Z,29
2018-03-21T00:28:24.429Z,29
2018-03-21T00:29:15.538Z,29
2018-03-21T00:30:05.613Z,29
2018-03-21T00:30:54.598Z,29
2018-03-21T00:31:45.741Z,29
2018-03-21T00:32:35.904Z,29
2018-03-21T00:33:25.977Z,29
2018-03-21T00:34:14.410Z,29
2018-03-21T00:35:06.053Z,29
2018-03-21T00:35:55.202Z,28.9
2018-03-21T00:36:45.305Z,28.9
2018-03-21T00:37:35.945Z,28.9
2018-03-21T00:38:25.288Z,29
2018-03-21T00:39:16.536Z,28.9
2018-03-21T00:40:05.752Z,28.9
2018-03-21T00:40:56.346Z,28.9
2018-03-21T00:41:46.137Z,28.9
2018-03-21T00:42:36.483Z,28.9
2018-03-21T00:43:26.523Z,28.9
2018-03-21T00:44:15.620Z,28.9
2018-03-21T00:45:06.185Z,28.9
2018-03-21T00:45:55.930Z,28.9
2018-03-21T00:46:46.913Z,28.9
2018-03-21T00:47:36.164Z,28.9
2018-03-21T00:48:26.596Z,28.9
2018-03-21T00:49:16.470Z,28.9
2018-03-21T00:50:06.349Z,28.9
2018-03-21T00:50:56.783Z,28.9
2018-03-21T00:51:46.042Z,28.9
2018-03-21T00:52:36.414Z,28.9
2018-03-21T00:53:26.963Z,28.9
2018-03-21T00:54:16.910Z,28.9
2018-03-21T00:55:07.605Z,28.9
2018-03-21T00:55:57.969Z,28.9
2018-03-21T00:56:47.755Z,28.9
2018-03-21T00:57:38.067Z,28.9
2018-03-21T00:58:28.387Z,28.9
2018-03-21T00:59:18.579Z,28.9
2018-03-21T01:00:08.287Z,28.9
2018-03-21T01:00:58.012Z,28.9
2018-03-21T01:01:48.655Z,28.9
2018-03-21T01:02:38.417Z,28.9
2018-03-21T01:03:28.216Z,28.8
2018-03-21T01:04:18.012Z,28.9
2018-03-21T01:05:08.324Z,28.9
2018-03-21T01:05:58.430Z,28.8
2018-03-21T01:06:48.245Z,28.8
2018-03-21T01:07:38.514Z,28.8
2018-03-21T01:08:28.931Z,28.9
2018-03-21T01:09:17.762Z,28.8
2018-03-21T01:10:57.799Z,28.8
2018-03-21T01:11:48.863Z,28.8
2018-03-21T01:12:38.102Z,28.8
2018-03-21T01:13:28.616Z,28.8
2018-03-21T01:14:19.239Z,28.8
2018-03-21T01:15:07.951Z,28.8
2018-03-21T01:15:59.112Z,28.8
2018-03-21T01:16:48.099Z,28.8
2018-03-21T01:17:38.555Z,28.8
2018-03-21T01:18:27.918Z,28.8
2018-03-21T01:19:18.548Z,28.8
2018-03-21T01:20:08.747Z,28.8
2018-03-21T01:20:59.325Z,28.8
2018-03-21T01:21:47.765Z,28.8
2018-03-21T01:22:38.023Z,28.8
2018-03-21T01:23:29.091Z,28.8
2018-03-21T01:24:18.131Z,28.8
2018-03-21T01:25:09.388Z,28.8
2018-03-21T01:25:59.245Z,28.8
2018-03-21T01:26:48.904Z,28.8
2018-03-21T01:27:38.664Z,28.8
2018-03-21T01:28:29.818Z,28.8
2018-03-21T01:29:19.756Z,28.8
2018-03-21T01:30:09.540Z,28.8
2018-03-21T01:30:58.299Z,28.8
2018-03-21T01:31:49.653Z,28.8
2018-03-21T01:32:39.293Z,28.8
2018-03-21T01:33:29.596Z,28.8
2018-03-21T01:34:19.635Z,28.8
2018-03-21T01:35:09.878Z,28.8
2018-03-21T01:36:00.140Z,28.8
2018-03-21T01:36:49.811Z,28.8
2018-03-21T01:37:39.002Z,28.8
2018-03-21T01:38:30.224Z,28.8
2018-03-21T01:39:20.260Z,28.8
2018-03-21T01:40:09.758Z,28.8
2018-03-21T01:40:59.917Z,28.8
2018-03-21T01:41:50.667Z,28.8
2018-03-21T01:42:40.960Z,28.8
2018-03-21T01:43:29.877Z,28.7
2018-03-21T01:44:20.728Z,28.8
2018-03-21T01:45:10.154Z,28.7
2018-03-21T01:46:00.152Z,28.7
2018-03-21T01:46:51.552Z,28.7
2018-03-21T01:47:40.319Z,28.7
2018-03-21T01:48:31.406Z,28.8
2018-03-21T01:49:20.487Z,28.7
2018-03-21T01:50:10.755Z,28.7
2018-03-21T01:51:00.100Z,28.7
2018-03-21T01:51:51.223Z,28.7
2018-03-21T01:52:40.616Z,28.7
2018-03-21T01:53:30.449Z,28.7
2018-03-21T01:54:21.292Z,28.7
2018-03-21T01:55:11.733Z,28.6
2018-03-21T01:56:00.946Z,28.7
2018-03-21T01:56:51.024Z,28.7
2018-03-21T01:57:41.368Z,28.7
2018-03-21T01:58:31.013Z,28.7
2018-03-21T01:59:21.647Z,28.7
2018-03-21T02:00:11.152Z,28.7
2018-03-21T02:01:02.284Z,28.7
2018-03-21T02:01:51.841Z,28.7
2018-03-21T02:02:41.694Z,28.7
2018-03-21T02:03:32.058Z,28.7
2018-03-21T02:04:22.037Z,28.7
2018-03-21T02:05:12.335Z,28.7
2018-03-21T02:06:02.128Z,28.7
2018-03-21T02:06:51.750Z,28.7
2018-03-21T02:07:41.765Z,28.8
2018-03-21T02:08:32.229Z,28.8
2018-03-21T02:09:21.091Z,28.7
2018-03-21T02:10:11.720Z,28.8
2018-03-21T02:11:03.022Z,28.8
2018-03-21T02:11:52.830Z,28.8
2018-03-21T02:12:42.235Z,28.8
2018-03-21T02:13:31.689Z,28.8
2018-03-21T02:14:21.983Z,28.8
2018-03-21T02:15:11.603Z,28.8
2018-03-21T02:16:02.440Z,28.8
2018-03-21T02:16:52.498Z,28.9
2018-03-21T02:17:42.384Z,28.9
2018-03-21T02:18:33.313Z,28.9
2018-03-21T02:19:22.103Z,28.9
2018-03-21T02:20:13.419Z,28.9
2018-03-21T02:21:02.912Z,28.9
2018-03-21T02:21:52.560Z,28.9
2018-03-21T02:22:42.168Z,28.9
2018-03-21T02:23:32.864Z,28.9
2018-03-21T02:24:22.670Z,28.9
2018-03-21T02:25:12.509Z,29
2018-03-21T02:26:02.161Z,29
2018-03-21T02:26:52.688Z,29
2018-03-21T02:27:42.891Z,29.1
2018-03-21T02:28:32.087Z,29.1
2018-03-21T02:29:23.494Z,29.1
2018-03-21T02:30:13.842Z,29.2
2018-03-21T02:31:03.652Z,29.3
2018-03-21T02:31:53.579Z,29.3
2018-03-21T02:32:43.019Z,29.4
2018-03-21T02:33:34.393Z,29.4
2018-03-21T02:34:24.640Z,29.6
2018-03-21T02:35:14.192Z,29.6
2018-03-21T02:36:02.978Z,29.7
2018-03-21T02:36:53.505Z,29.8
2018-03-21T02:37:44.395Z,29.9
2018-03-21T02:38:34.256Z,29.9
2018-03-21T02:39:23.805Z,30.1
2018-03-21T02:40:14.164Z,30.2
2018-03-21T02:41:04.003Z,30.3
2018-03-21T02:41:54.469Z,30.4
2018-03-21T02:42:44.057Z,30.5
2018-03-21T02:43:34.280Z,30.6
2018-03-21T02:44:23.859Z,30.7
2018-03-21T02:45:14.026Z,30.8
2018-03-21T02:46:04.257Z,30.9
2018-03-21T02:46:54.928Z,30.9
2018-03-21T02:47:45.060Z,31.1
2018-03-21T02:48:35.050Z,31.2
2018-03-21T02:49:25.936Z,31.3
2018-03-21T02:50:16.029Z,31.4
2018-03-21T02:51:05.599Z,31.5
2018-03-21T02:51:54.777Z,31.6
2018-03-21T02:52:45.880Z,31.7
2018-03-21T02:53:35.985Z,31.8
2018-03-21T02:54:25.609Z,31.9
2018-03-21T02:55:15.635Z,32
2018-03-21T02:56:06.124Z,32.1
2018-03-21T02:56:56.537Z,32.2
2018-03-21T02:57:46.492Z,32.3
2018-03-21T02:58:36.657Z,32.4
2018-03-21T02:59:26.436Z,32.5
2018-03-21T03:00:16.480Z,32.6
2018-03-21T03:01:06.012Z,32.8
2018-03-21T03:01:55.498Z,32.9
2018-03-21T03:02:45.091Z,32.9
2018-03-21T03:03:34.810Z,33.1
2018-03-21T03:04:26.075Z,33.2
2018-03-21T03:05:15.737Z,33.3
2018-03-21T03:06:05.207Z,33.4
2018-03-21T03:06:55.312Z,33.5
2018-03-21T03:07:45.509Z,33.6
2018-03-21T03:08:35.074Z,33.8
2018-03-21T03:09:26.039Z,33.9
2018-03-21T03:10:16.340Z,33.9
2018-03-21T03:11:06.032Z,34.1
2018-03-21T03:11:55.767Z,34.2
2018-03-21T03:12:46.364Z,34.3
2018-03-21T03:13:35.640Z,34.4
2018-03-21T03:14:26.500Z,34.5
2018-03-21T03:15:16.727Z,34.6
2018-03-21T03:16:06.787Z,34.7
2018-03-21T03:16:56.434Z,34.8
2018-03-21T03:17:47.280Z,34.9
2018-03-21T03:18:36.956Z,35.1
2018-03-21T03:19:26.641Z,35.2
2018-03-21T03:20:16.159Z,35.3
2018-03-21T03:21:06.634Z,35.4
2018-03-21T03:21:56.429Z,35.4
2018-03-21T03:22:45.609Z,35.6
2018-03-21T03:23:36.726Z,35.7
2018-03-21T03:24:27.236Z,35.8
2018-03-21T03:25:17.258Z,35.9
2018-03-21T03:26:07.194Z,36.1
2018-03-21T03:26:57.606Z,36.2
2018-03-21T03:27:47.880Z,36.3
2018-03-21T03:28:37.650Z,36.4
2018-03-21T03:29:27.771Z,36.5
2018-03-21T03:30:17.326Z,36.6
2018-03-21T03:31:07.737Z,36.7
2018-03-21T03:31:58.172Z,36.8
2018-03-21T03:32:48.860Z,36.9
2018-03-21T03:33:37.221Z,36.9
2018-03-21T03:34:28.371Z,37
2018-03-21T03:35:17.840Z,37
2018-03-21T03:36:07.389Z,37.1
2018-03-21T03:36:57.561Z,37.1
2018-03-21T03:37:48.033Z,37.1
2018-03-21T03:38:38.505Z,37.2
2018-03-21T03:39:27.913Z,37.3
2018-03-21T03:40:19.068Z,37.3
2018-03-21T03:41:08.370Z,37.3
2018-03-21T03:41:58.505Z,37.3
2018-03-21T03:42:49.145Z,37.3
2018-03-21T03:43:38.289Z,37.3
2018-03-21T03:44:28.830Z,37.3
2018-03-21T03:45:19.085Z,37.4
2018-03-21T03:46:09.133Z,37.4
2018-03-21T03:46:59.045Z,37.4
2018-03-21T03:47:49.214Z,37.4
2018-03-21T03:48:39.332Z,37.4
2018-03-21T03:49:30.201Z,37.4
2018-03-21T03:50:19.655Z,37.4
2018-03-21T03:51:09.675Z,37.4
2018-03-21T03:51:59.769Z,37.4
2018-03-21T03:52:50.380Z,37.4
2018-03-21T03:53:40.737Z,37.4
2018-03-21T03:54:30.539Z,37.4
2018-03-21T03:55:20.282Z,37.4
2018-03-21T03:56:10.621Z,37.4
2018-03-21T03:57:00.969Z,37.4
2018-03-21T03:57:50.741Z,37.4
2018-03-21T03:58:40.287Z,37.4
2018-03-21T03:59:31.188Z,37.4
2018-03-21T04:00:19.961Z,37.4
2018-03-21T04:01:09.392Z,37.4
2018-03-21T04:02:00.058Z,37.5
2018-03-21T04:02:50.034Z,37.4
2018-03-21T04:03:41.413Z,37.5
2018-03-21T04:04:29.861Z,37.4
2018-03-21T04:05:20.217Z,37.4
2018-03-21T04:06:09.897Z,37.4
2018-03-21T04:07:00.248Z,37.4
2018-03-21T04:07:50.389Z,37.4
2018-03-21T04:08:40.254Z,37.4
2018-03-21T04:09:30.314Z,37.4
2018-03-21T04:10:20.591Z,37.5
2018-03-21T04:11:10.154Z,37.4
2018-03-21T04:11:59.848Z,37.4
2018-03-21T04:12:51.354Z,37.4
2018-03-21T04:13:39.926Z,37.4
2018-03-21T04:14:30.685Z,37.4
2018-03-21T04:15:21.259Z,37.4
2018-03-21T04:16:10.943Z,37.4
2018-03-21T04:17:01.571Z,37.4
2018-03-21T04:17:50.696Z,37.4
2018-03-21T04:18:41.541Z,37.4
2018-03-21T04:19:30.808Z,37.4
2018-03-21T04:20:21.195Z,37.4
2018-03-21T04:21:10.713Z,37.4
2018-03-21T04:22:00.943Z,37.4
2018-03-21T04:22:51.181Z,37.4
2018-03-21T04:23:42.104Z,37.4
2018-03-21T04:24:31.283Z,37.4
2018-03-21T04:25:21.189Z,37.4
2018-03-21T04:26:11.657Z,37.4
2018-03-21T04:27:01.540Z,37.4
2018-03-21T04:27:51.799Z,37.4
2018-03-21T04:28:42.924Z,37.4
2018-03-21T04:29:32.118Z,37.4
2018-03-21T04:30:22.259Z,37.4
2018-03-21T04:31:11.932Z,37.4
2018-03-21T04:32:02.162Z,37.4
2018-03-21T04:32:52.448Z,37.4
2018-03-21T04:33:42.386Z,37.4
2018-03-21T04:34:31.769Z,37.4
2018-03-21T04:35:22.120Z,37.4
2018-03-21T04:36:12.692Z,37.4
2018-03-21T04:37:02.645Z,37.4
2018-03-21T04:37:51.782Z,37.4
2018-03-21T04:38:42.352Z,37.4
2018-03-21T04:39:32.820Z,37.4
2018-03-21T04:40:21.880Z,37.4
2018-03-21T04:41:11.887Z,37.4
2018-03-21T04:42:03.631Z,37.4
2018-03-21T04:42:54.156Z,37.4
2018-03-21T04:43:43.218Z,37.4
2018-03-21T04:44:33.499Z,37.4
2018-03-21T04:45:24.057Z,37.4
2018-03-21T04:46:13.333Z,37.4
2018-03-21T04:47:03.347Z,37.4
2018-03-21T04:47:53.774Z,37.4
2018-03-21T04:48:43.516Z,37.4
2018-03-21T04:49:34.594Z,37.4
2018-03-21T04:50:23.933Z,37.4
2018-03-21T04:51:13.707Z,37.4
2018-03-21T04:52:03.783Z,37.4
2018-03-21T04:52:53.436Z,37.4
2018-03-21T04:53:43.598Z,37.4
2018-03-21T04:54:33.582Z,37.4
2018-03-21T04:55:23.523Z,37.4
2018-03-21T04:56:14.350Z,37.4
2018-03-21T04:57:03.282Z,37.4
2018-03-21T04:57:53.605Z,37.3
2018-03-21T04:58:44.770Z,37.4
2018-03-21T04:59:33.458Z,37.3
2018-03-21T05:00:24.097Z,37.3
2018-03-21T05:01:14.171Z,37.3
2018-03-21T05:02:03.023Z,37.3
2018-03-21T05:02:54.605Z,37.3
2018-03-21T05:03:44.894Z,37.3
2018-03-21T05:04:35.240Z,37.3
2018-03-21T05:05:24.948Z,37.3
2018-03-21T05:06:15.280Z,37.3
2018-03-21T05:07:05.348Z,37.3
2018-03-21T05:07:55.162Z,37.3
2018-03-21T05:08:45.510Z,37.3
2018-03-21T05:09:35.741Z,37.3
2018-03-21T05:10:25.572Z,37.3
2018-03-21T05:11:15.709Z,37.3
2018-03-21T05:12:05.699Z,37.3
2018-03-21T05:12:55.772Z,37.3
2018-03-21T05:13:45.915Z,37.3
2018-03-21T05:14:35.919Z,37.3
2018-03-21T05:15:25.937Z,37.3
2018-03-21T05:16:16.485Z,37.3
2018-03-21T05:17:06.270Z,37.3
2018-03-21T05:17:56.334Z,37.3
2018-03-21T05:18:45.377Z,37.3
2018-03-21T05:19:36.517Z,37.3
2018-03-21T05:20:25.751Z,37.3
2018-03-21T05:21:15.791Z,37.3
2018-03-21T05:22:06.166Z,37.3
2018-03-21T05:22:55.373Z,37.3
2018-03-21T05:23:45.715Z,37.3
2018-03-21T05:24:35.451Z,37.3
2018-03-21T05:25:26.060Z,37.3
2018-03-21T05:26:15.853Z,37.3
2018-03-21T05:27:06.312Z,37.3
2018-03-21T05:27:56.570Z,37.3
2018-03-21T05:28:46.608Z,37.3
2018-03-21T05:29:36.105Z,37.3
2018-03-21T05:30:26.778Z,37.2
2018-03-21T05:31:15.362Z,37.2
2018-03-21T05:32:05.208Z,37.2
2018-03-21T05:32:55.312Z,37.2
2018-03-21T05:33:45.953Z,37.2
2018-03-21T05:34:35.973Z,37.2
2018-03-21T05:35:25.941Z,37.2
2018-03-21T05:36:16.205Z,37.2
2018-03-21T05:37:05.859Z,37.2
2018-03-21T05:37:56.603Z,37.2
2018-03-21T05:38:46.188Z,37.2
2018-03-21T05:39:36.912Z,37.2
2018-03-21T05:40:26.030Z,37.2
2018-03-21T05:41:16.870Z,37.2
2018-03-21T05:42:06.913Z,37.2
2018-03-21T05:42:57.041Z,37.2
2018-03-21T05:43:46.644Z,37.1
2018-03-21T05:44:37.955Z,37.2
2018-03-21T05:45:26.969Z,37.2
2018-03-21T05:46:17.782Z,37.2
2018-03-21T05:47:06.854Z,37.1
2018-03-21T05:47:57.489Z,37.1
2018-03-21T05:48:47.961Z,37.1
2018-03-21T05:49:37.315Z,37.1
2018-03-21T05:50:28.182Z,37.1
2018-03-21T05:51:17.312Z,37.1
2018-03-21T05:52:08.282Z,37.1
2018-03-21T05:52:57.863Z,37.1
2018-03-21T05:53:48.059Z,37.1
2018-03-21T05:54:38.649Z,37.1
2018-03-21T05:55:27.808Z,37.1
2018-03-21T05:56:18.608Z,37.1
2018-03-21T05:57:07.966Z,37.1
2018-03-21T05:57:58.011Z,37.1
2018-03-21T05:58:47.666Z,37.1
2018-03-21T05:59:38.415Z,37.1
2018-03-21T06:00:29.016Z,37.1
2018-03-21T06:01:19.013Z,37.1
2018-03-21T06:02:07.914Z,37.1
2018-03-21T06:02:58.511Z,37.1
2018-03-21T06:03:48.102Z,37.1
2018-03-21T06:04:38.408Z,37.1
2018-03-21T06:05:28.249Z,37.1
2018-03-21T06:06:18.603Z,37.1
2018-03-21T06:07:07.831Z,37.1
2018-03-21T06:07:58.801Z,37.1
2018-03-21T06:08:49.206Z,37.1
2018-03-21T06:09:39.430Z,37.1
2018-03-21T06:10:28.476Z,37.1
2018-03-21T06:11:19.536Z,37.1
2018-03-21T06:12:09.219Z,37
2018-03-21T06:13:00.253Z,37.1
2018-03-21T06:13:49.818Z,37
2018-03-21T06:14:38.798Z,37.1
2018-03-21T06:15:28.863Z,37
2018-03-21T06:16:19.003Z,37
2018-03-21T06:17:10.618Z,37
2018-03-21T06:18:00.218Z,37
2018-03-21T06:18:48.597Z,37.1
2018-03-21T06:19:39.145Z,37
2018-03-21T06:20:29.610Z,37
2018-03-21T06:21:19.746Z,37
2018-03-21T06:22:09.834Z,37
2018-03-21T06:22:59.659Z,37
2018-03-21T06:23:50.199Z,37
2018-03-21T06:24:39.577Z,37
2018-03-21T06:25:30.134Z,37
2018-03-21T06:26:19.612Z,37
2018-03-21T06:27:10.242Z,36.9
2018-03-21T06:28:00.097Z,36.9
2018-03-21T06:28:50.775Z,36.9
2018-03-21T06:29:41.365Z,36.9
2018-03-21T06:30:29.625Z,36.9
2018-03-21T06:31:20.040Z,36.9
2018-03-21T06:32:10.217Z,36.9
2018-03-21T06:33:00.497Z,36.9
2018-03-21T06:33:50.522Z,36.9
2018-03-21T06:34:40.511Z,36.9
2018-03-21T06:35:30.919Z,36.9
2018-03-21T06:36:21.262Z,36.9
2018-03-21T06:37:11.115Z,36.9
2018-03-21T06:38:01.288Z,37
2018-03-21T06:38:51.236Z,37.1
2018-03-21T06:39:40.527Z,37.1
2018-03-21T06:40:31.379Z,37.1
2018-03-21T06:41:21.121Z,37.1
2018-03-21T06:42:11.702Z,37.1
2018-03-21T06:43:01.209Z,37.2
2018-03-21T06:43:51.817Z,37.2
2018-03-21T06:44:41.310Z,37.2
2018-03-21T06:45:31.976Z,37.2
2018-03-21T06:46:21.361Z,37.3
2018-03-21T06:47:11.711Z,37.3
2018-03-21T06:48:01.974Z,37.3
2018-03-21T06:48:51.839Z,37.3
2018-03-21T06:49:41.413Z,37.3
2018-03-21T06:50:32.459Z,37.3
2018-03-21T06:51:22.029Z,37.3
2018-03-21T06:52:11.078Z,37.3
2018-03-21T06:53:00.721Z,37.3
2018-03-21T06:53:51.595Z,37.3
2018-03-21T06:54:42.145Z,37.3
2018-03-21T06:55:32.100Z,37.3
2018-03-21T06:56:23.080Z,37.3
2018-03-21T06:57:12.026Z,37.3
2018-03-21T06:58:02.225Z,37.2
2018-03-21T06:58:52.412Z,37.3
2018-03-21T06:59:42.962Z,37.3
2018-03-21T07:00:33.245Z,37.2
2018-03-21T07:01:22.129Z,37.2
2018-03-21T07:02:13.310Z,37.2
2018-03-21T07:03:02.643Z,37.2
2018-03-21T07:03:53.167Z,37.2
2018-03-21T07:04:43.013Z,37.2
2018-03-21T07:05:33.382Z,37.2
2018-03-21T07:06:22.780Z,37.2
2018-03-21T07:07:12.367Z,37.1
2018-03-21T07:08:02.295Z,37.1
2018-03-21T07:08:53.521Z,37.1
2018-03-21T07:09:44.076Z,37.1
2018-03-21T07:10:33.167Z,37.1
2018-03-21T07:11:23.206Z,37.1
2018-03-21T07:12:12.453Z,37.1
2018-03-21T07:13:03.801Z,37.1
2018-03-21T07:13:53.157Z,37.1
2018-03-21T07:14:43.124Z,37.1
2018-03-21T07:15:33.024Z,37.1
2018-03-21T07:16:23.828Z,37.1
2018-03-21T07:17:13.470Z,37.1
2018-03-21T07:18:03.200Z,37.1
2018-03-21T07:18:53.192Z,37.1
2018-03-21T07:19:43.323Z,37.1
2018-03-21T07:20:33.909Z,37
2018-03-21T07:21:21.953Z,37
2018-03-21T07:22:13.936Z,37
2018-03-21T07:23:04.553Z,37
2018-03-21T07:23:53.527Z,37
2018-03-21T07:24:43.404Z,37
2018-03-21T07:25:34.244Z,36.9
2018-03-21T07:26:23.634Z,36.9
2018-03-21T07:27:14.092Z,36.9
2018-03-21T07:28:04.178Z,36.9
2018-03-21T07:28:54.208Z,36.9
2018-03-21T07:29:44.844Z,36.9
2018-03-21T07:30:34.058Z,36.9
2018-03-21T07:31:24.916Z,36.9
2018-03-21T07:32:15.240Z,36.9
2018-03-21T07:33:04.851Z,36.9
2018-03-21T07:33:55.327Z,36.9
2018-03-21T07:34:44.558Z,36.9
2018-03-21T07:35:34.409Z,36.9
2018-03-21T07:36:25.080Z,36.9
2018-03-21T07:37:15.308Z,36.9
2018-03-21T07:38:04.950Z,36.9
2018-03-21T07:38:54.893Z,36.9
2018-03-21T07:39:45.098Z,36.9
2018-03-21T07:40:35.365Z,36.9
2018-03-21T07:41:24.815Z,36.9
2018-03-21T07:42:14.826Z,36.9
2018-03-21T07:43:05.136Z,36.9
2018-03-21T07:43:55.978Z,36.9
2018-03-21T07:44:45.987Z,36.9
2018-03-21T07:45:35.008Z,36.9
2018-03-21T07:46:26.217Z,36.9
2018-03-21T07:47:16.153Z,36.9
2018-03-21T07:48:05.514Z,36.9
2018-03-21T07:48:56.205Z,36.9
2018-03-21T07:49:45.280Z,36.8
2018-03-21T07:50:35.685Z,36.8
2018-03-21T07:51:26.108Z,36.8
2018-03-21T07:52:15.583Z,36.8
2018-03-21T07:53:06.130Z,36.8
2018-03-21T07:53:56.005Z,36.8
2018-03-21T07:54:45.743Z,36.8
2018-03-21T07:55:36.365Z,36.8
2018-03-21T07:56:26.920Z,36.8
2018-03-21T07:57:16.813Z,36.8
2018-03-21T07:58:06.281Z,36.7
2018-03-21T07:58:55.793Z,36.7
2018-03-21T07:59:46.171Z,36.7
2018-03-21T08:00:35.486Z,36.7
2018-03-21T08:01:26.775Z,36.6
2018-03-21T08:02:16.860Z,36.6
2018-03-21T08:03:07.636Z,36.6
2018-03-21T08:03:56.402Z,36.6
2018-03-21T08:04:47.465Z,36.6
2018-03-21T08:05:36.791Z,36.6
2018-03-21T08:06:27.339Z,36.6
2018-03-21T08:07:16.812Z,36.6
2018-03-21T08:08:06.775Z,36.6
2018-03-21T08:08:57.620Z,36.6
2018-03-21T08:09:47.008Z,36.6
2018-03-21T08:10:38.390Z,36.6
2018-03-21T08:11:28.018Z,36.6
2018-03-21T08:12:17.798Z,36.6
2018-03-21T08:13:08.037Z,36.6
2018-03-21T08:13:57.397Z,36.6
2018-03-21T08:14:47.608Z,36.6
2018-03-21T08:15:37.809Z,36.6
2018-03-21T08:16:27.856Z,36.6
2018-03-21T08:17:18.105Z,36.6
2018-03-21T08:18:08.645Z,36.6
2018-03-21T08:18:57.681Z,36.6
2018-03-21T08:19:47.506Z,36.6
2018-03-21T08:20:38.643Z,36.6
2018-03-21T08:21:27.606Z,36.6
2018-03-21T08:22:17.859Z,36.6
2018-03-21T08:23:09.057Z,36.6
2018-03-21T08:23:59.154Z,36.6
2018-03-21T08:24:48.394Z,36.6
2018-03-21T08:25:39.223Z,36.6
2018-03-21T08:26:28.998Z,36.6
2018-03-21T08:27:18.555Z,36.6
2018-03-21T08:28:08.180Z,36.6
2018-03-21T08:28:59.842Z,36.6
2018-03-21T08:29:48.861Z,36.6
2018-03-21T08:30:38.645Z,36.6
2018-03-21T08:31:28.680Z,36.6
2018-03-21T08:32:18.348Z,36.6
2018-03-21T08:33:09.517Z,36.6
2018-03-21T08:33:58.991Z,36.6
2018-03-21T08:34:49.773Z,36.6
2018-03-21T08:35:39.280Z,36.6
2018-03-21T08:36:28.680Z,36.6
2018-03-21T08:37:19.489Z,36.6
2018-03-21T08:38:10.141Z,36.6
2018-03-21T08:38:59.665Z,36.6
2018-03-21T08:39:49.005Z,36.6
2018-03-21T08:40:38.845Z,36.6
2018-03-21T08:41:29.827Z,36.6
2018-03-21T08:42:21.139Z,36.6
2018-03-21T08:43:09.239Z,36.6
2018-03-21T08:43:59.897Z,36.5
2018-03-21T08:44:49.756Z,36.6
2018-03-21T08:45:39.739Z,36.5
2018-03-21T08:46:29.475Z,36.6
2018-03-21T08:47:20.818Z,36.5
2018-03-21T08:48:09.991Z,36.5
2018-03-21T08:48:59.820Z,36.5
2018-03-21T08:49:49.790Z,36.5
2018-03-21T08:50:40.608Z,36.5
2018-03-21T08:51:30.107Z,36.5
2018-03-21T08:52:20.165Z,36.5
2018-03-21T08:53:10.349Z,36.5
2018-03-21T08:53:59.814Z,36.5
2018-03-21T08:54:50.921Z,36.5
2018-03-21T08:55:41.257Z,36.4
2018-03-21T08:56:30.477Z,36.5
2018-03-21T08:57:20.604Z,36.5
2018-03-21T08:58:10.289Z,36.5
2018-03-21T08:59:00.751Z,36.5
2018-03-21T08:59:51.609Z,36.5
2018-03-21T09:00:40.583Z,36.4
2018-03-21T09:01:31.166Z,36.4
2018-03-21T09:02:21.359Z,36.5
2018-03-21T09:03:11.219Z,36.4
2018-03-21T09:04:01.417Z,36.4
2018-03-21T09:04:51.359Z,36.4
2018-03-21T09:05:41.838Z,36.4
2018-03-21T09:06:31.625Z,36.4
2018-03-21T09:07:21.121Z,36.4
2018-03-21T09:08:11.294Z,36.4
2018-03-21T09:09:01.067Z,36.4
2018-03-21T09:09:50.994Z,36.4
2018-03-21T09:10:41.259Z,36.4
2018-03-21T09:11:31.246Z,36.4
2018-03-21T09:12:22.003Z,36.4
2018-03-21T09:13:12.013Z,36.4
2018-03-21T09:14:01.403Z,36.4
2018-03-21T09:14:52.186Z,36.4
2018-03-21T09:15:41.460Z,36.4
2018-03-21T09:16:32.524Z,36.4
2018-03-21T09:17:22.595Z,36.4
2018-03-21T09:18:11.888Z,36.4
2018-03-21T09:19:01.056Z,36.4
2018-03-21T09:19:51.312Z,36.4
2018-03-21T09:20:42.338Z,36.4
2018-03-21T09:21:31.944Z,36.3
2018-03-21T09:22:22.166Z,36.4
2018-03-21T09:23:12.313Z,36.3
2018-03-21T09:24:03.000Z,36.3
2018-03-21T09:24:52.627Z,36.3
2018-03-21T09:25:42.728Z,36.3
2018-03-21T09:26:32.480Z,36.3
2018-03-21T09:27:22.748Z,36.3
2018-03-21T09:28:12.023Z,36.3
2018-03-21T09:29:02.970Z,36.3
2018-03-21T09:29:52.934Z,36.3
2018-03-21T09:30:42.408Z,36.3
2018-03-21T09:31:33.508Z,36.3
2018-03-21T09:32:23.281Z,36.3
2018-03-21T09:33:13.215Z,36.3
2018-03-21T09:34:02.642Z,36.3
2018-03-21T09:34:53.075Z,36.3
2018-03-21T09:35:43.584Z,36.3
2018-03-21T09:36:32.959Z,36.3
2018-03-21T09:37:23.855Z,36.3
2018-03-21T09:38:14.035Z,36.3
2018-03-21T09:39:03.309Z,36.3
2018-03-21T09:39:53.644Z,36.3
2018-03-21T09:40:44.761Z,36.3
2018-03-21T09:41:33.229Z,36.3
2018-03-21T09:42:23.710Z,36.2
2018-03-21T09:43:14.064Z,36.2
2018-03-21T09:44:03.701Z,36.3
2018-03-21T09:44:53.942Z,36.2
2018-03-21T09:45:44.284Z,36.2
2018-03-21T09:46:33.593Z,36.2
2018-03-21T09:47:24.742Z,36.2
2018-03-21T09:48:14.405Z,36.2
2018-03-21T09:49:03.715Z,36.2
2018-03-21T09:49:54.587Z,36.2
2018-03-21T09:50:44.751Z,36.2
2018-03-21T09:51:33.249Z,36.2
2018-03-21T09:52:25.378Z,36.2
2018-03-21T09:53:13.354Z,36.2
2018-03-21T09:54:05.044Z,36.2
2018-03-21T09:54:54.176Z,36.2
2018-03-21T09:55:44.709Z,36.1
2018-03-21T09:56:34.400Z,36.1
2018-03-21T09:57:25.121Z,36.1
2018-03-21T09:58:14.939Z,36.1
2018-03-21T09:59:04.953Z,36.1
2018-03-21T09:59:55.542Z,36.1
2018-03-21T10:00:46.608Z,36.1
2018-03-21T10:01:35.878Z,36.1
2018-03-21T10:02:26.310Z,36.1
2018-03-21T10:03:16.526Z,36.1
2018-03-21T10:04:06.624Z,36.1
2018-03-21T10:04:56.638Z,36.1
2018-03-21T10:05:46.693Z,36.1
2018-03-21T10:06:36.760Z,36.1
2018-03-21T10:07:26.845Z,36.1
2018-03-21T10:08:16.930Z,36.1
2018-03-21T10:09:06.674Z,36.1
2018-03-21T10:09:56.724Z,36.1
2018-03-21T10:10:46.767Z,36.1
2018-03-21T10:11:37.150Z,36.1
2018-03-21T10:12:26.754Z,36.1
2018-03-21T10:13:16.713Z,36.1
2018-03-21T10:14:06.752Z,36.1
2018-03-21T10:14:57.134Z,36.1
2018-03-21T10:15:47.629Z,36.1
2018-03-21T10:16:36.354Z,36.1
2018-03-21T10:17:27.562Z,36.1
2018-03-21T10:18:17.605Z,36
2018-03-21T10:19:06.597Z,36
2018-03-21T10:19:57.424Z,36
2018-03-21T10:20:46.917Z,36
2018-03-21T10:21:37.547Z,36
2018-03-21T10:22:27.656Z,36
2018-03-21T10:23:18.110Z,36
2018-03-21T10:24:07.721Z,36
2018-03-21T10:24:57.831Z,36
2018-03-21T10:25:47.866Z,36
2018-03-21T10:26:37.677Z,36
2018-03-21T10:27:27.977Z,36
2018-03-21T10:28:18.366Z,36
2018-03-21T10:29:07.611Z,36
2018-03-21T10:29:57.094Z,35.9
2018-03-21T10:30:47.652Z,35.9
2018-03-21T10:31:37.348Z,35.9
2018-03-21T10:32:27.445Z,36
2018-03-21T10:33:16.348Z,35.9
2018-03-21T10:34:07.287Z,35.9
2018-03-21T10:34:58.279Z,35.9
2018-03-21T10:35:48.323Z,35.9
2018-03-21T10:36:37.593Z,35.9
2018-03-21T10:37:28.726Z,35.9
2018-03-21T10:38:18.751Z,35.9
2018-03-21T10:39:08.558Z,35.9
2018-03-21T10:39:58.612Z,35.9
2018-03-21T10:40:49.210Z,35.9
2018-03-21T10:41:38.481Z,35.9
2018-03-21T10:42:29.311Z,35.9
2018-03-21T10:43:19.373Z,35.9
2018-03-21T10:44:08.846Z,35.9
2018-03-21T10:44:58.952Z,35.9
2018-03-21T10:45:47.839Z,35.9
2018-03-21T10:46:37.960Z,35.9
2018-03-21T10:47:29.680Z,35.9
2018-03-21T10:48:18.897Z,35.9
2018-03-21T10:49:09.089Z,35.9
2018-03-21T10:49:59.545Z,35.9
2018-03-21T10:50:49.356Z,35.8
2018-03-21T10:51:39.695Z,35.9
2018-03-21T10:52:43.200Z,35.9
2018-03-21T10:53:19.540Z,35.8
2018-03-21T10:54:09.976Z,35.8
2018-03-21T10:54:59.614Z,35.8
2018-03-21T10:55:49.737Z,35.8
2018-03-21T10:56:39.263Z,35.8
2018-03-21T10:57:30.049Z,35.8
2018-03-21T10:58:20.411Z,35.8
2018-03-21T10:59:10.708Z,35.8
2018-03-21T11:00:00.012Z,35.8
2018-03-21T11:00:50.053Z,35.8
2018-03-21T11:01:38.864Z,35.8
2018-03-21T11:02:29.554Z,35.8
2018-03-21T11:03:19.649Z,35.8
2018-03-21T11:04:09.546Z,35.8
2018-03-21T11:04:58.986Z,35.8
2018-03-21T11:05:50.654Z,35.8
2018-03-21T11:06:39.324Z,35.8
2018-03-21T11:07:29.252Z,35.8
2018-03-21T11:08:20.597Z,35.8
2018-03-21T11:09:09.796Z,35.8
2018-03-21T11:09:59.303Z,35.8